Currently 50°F in Riverside (Presidential Park), California, USA
50°F
53°F / 50°F
4 mph E
0.00"
Saturday, March 6, 2021 2:21 AM PST

Riverside (Presidential Park), California Weather Summary
Last 36 Hours

Temperature Winds Hourly Humidity Dewpoint
Time Report Norm Report Norm Max Gusts Precip. Rpt. Norm Rpt. Norm Pressure
1Sat 02:21 AM  49.7°F  52°F  4 mph E  1 mph  3 mph  0.00"  66%  74%  39°F  43°F  30.00"
3Sat 02:18 AM  49.7°F  52°F  2 mph E  1 mph  3 mph  ----  66%  74%  38°F  43°F  30.01"
Sat 02:00 AM  50.6°F  52°F  1 mph S  1 mph  4 mph  0.00"  67%  74%  40°F  43°F  30.01"
Sat 01:00 AM  51.3°F  53°F  calm  1 mph  2 mph  0.00"  61%  72%  38°F  44°F  29.99"
2Sat 12:01 AM  53.1°F  53°F  calm  1 mph  none  ----  58%  70%  38°F  44°F  30.01"
Sat 12:00 AM  52.8°F  53°F  calm  1 mph  3 mph  0.00"  58%  70%  38°F  44°F  30.01"
Fri 11:00 PM  54.7°F  55°F  2 mph SE  1 mph  4 mph  0.00"  56%  68%  39°F  44°F  30.01"
Fri 10:00 PM  57.6°F  56°F  1 mph SE  2 mph  4 mph  0.00"  53%  66%  40°F  44°F  30.02"
Fri 09:00 PM  61.1°F  58°F  calm  2 mph  3 mph  0.00"  44%  63%  38°F  45°F  30.01"
Fri 08:00 PM  64.5°F  60°F  calm  2 mph  11 mph  0.00"  38%  58%  37°F  45°F  30.00"
Fri 07:00 PM  67.0°F  62°F  2 mph W  3 mph  11 mph  0.00"  38%  53%  40°F  44°F  29.98"
Fri 06:00 PM  70.1°F  65°F  6 mph SW  4 mph  16 mph  0.00"  28%  48%  34°F  44°F  29.97"
Fri 05:00 PM  75.3°F  68°F  11 mph SW  6 mph  17 mph  0.00"  25%  43%  36°F  43°F  29.96"
Fri 04:00 PM  79.0°F  69°F  8 mph W  6 mph  17 mph  0.00"  21%  39%  35°F  43°F  29.96"
Fri 03:00 PM  79.8°F  69°F  4 mph SW  6 mph  8 mph  0.00"  16%  39%  28°F  42°F  29.98"
Fri 02:00 PM  77.8°F  69°F  2 mph SW  5 mph  10 mph  0.00"  17%  40%  28°F  43°F  30.00"
Fri 01:00 PM  78.9°F  68°F  3 mph SW  5 mph  9 mph  0.00"  16%  42%  28°F  43°F  30.03"
Fri 12:00 PM  77.7°F  67°F  2 mph NW  5 mph  9 mph  0.00"  18%  43%  30°F  43°F  30.07"
Fri 11:00 AM  73.5°F  65°F  5 mph NE  4 mph  9 mph  0.00"  26%  48%  35°F  44°F  30.11"
Fri 10:00 AM  67.2°F  62°F  calm  3 mph  4 mph  0.00"  42%  54%  42°F  45°F  30.13"
Fri 09:00 AM  58.6°F  58°F  calm  2 mph  6 mph  0.00"  69%  63%  48°F  45°F  30.15"
Fri 08:00 AM  49.1°F  53°F  calm  2 mph  6 mph  0.00"  85%  71%  45°F  44°F  30.16"
Fri 07:00 AM  43.6°F  50°F  1 mph SE  1 mph  3 mph  0.00"  86%  75%  40°F  42°F  30.16"
Fri 06:00 AM  43.4°F  50°F  calm  1 mph  3 mph  0.00"  85%  76%  39°F  42°F  30.15"
Fri 05:00 AM  44.0°F  50°F  calm  1 mph  2 mph  0.00"  84%  76%  39°F  42°F  30.15"
Fri 04:00 AM  44.7°F  51°F  calm  1 mph  3 mph  0.00"  83%  75%  40°F  43°F  30.16"
Fri 03:00 AM  45.7°F  51°F  calm  2 mph  none  0.00"  82%  74%  40°F  43°F  30.16"
Fri 02:00 AM  47.0°F  52°F  calm  1 mph  none  0.00"  81%  73%  41°F  43°F  30.17"
Fri 01:00 AM  48.3°F  53°F  calm  1 mph  3 mph  0.00"  79%  72%  42°F  43°F  30.19"
Fri 12:00 AM  49.3°F  53°F  calm  1 mph  3 mph  0.00"  77%  70%  42°F  43°F  30.20"
Thu 11:00 PM  51.2°F  54°F  1 mph SE  2 mph  3 mph  0.00"  75%  68%  43°F  44°F  30.21"
Thu 10:00 PM  52.8°F  56°F  1 mph SE  2 mph  3 mph  0.00"  72%  66%  43°F  44°F  30.23"
Thu 09:00 PM  55.0°F  57°F  calm  2 mph  3 mph  0.00"  66%  63%  44°F  44°F  30.23"
Thu 08:00 PM  59.0°F  59°F  1 mph E  2 mph  6 mph  0.00"  59%  58%  44°F  44°F  30.22"
Thu 07:00 PM  62.0°F  62°F  4 mph SW  3 mph  9 mph  0.00"  55%  53%  45°F  44°F  30.20"
Thu 06:00 PM  64.8°F  64°F  3 mph SW  4 mph  8 mph  0.00"  49%  48%  44°F  44°F  30.19"
Thu 05:00 PM  67.9°F  67°F  4 mph W  6 mph  9 mph  0.00"  43%  43%  44°F  43°F  30.19"
Thu 04:00 PM  68.6°F  69°F  4 mph SW  6 mph  10 mph  0.00"  41%  40%  43°F  43°F  30.18"
Thu 03:00 PM  66.4°F  69°F  7 mph NW  6 mph  11 mph  0.00"  44%  39%  43°F  42°F  30.19"

  1. Current weather data. No green row appears if the current weather data is also the high or low for the current day.
  2. High temperature for the current day.
  3. Low temperature for the current day.

The Riverside (Presidential Park), California weather pages are a service of WeatherCurrents.
Copyright ©2021  WeatherCurrents. All rights reserved. - Submit questions and comments - Privacy Policy

This page automatically refreshes every 10 minutes.